Time,TemperatureF,DewpointF,PressureIn,WindDirection,WindDirectionDegrees,WindSpeedMPH,WindSpeedGustMPH,Humidity,HourlyPrecipIn,Conditions,Clouds,dailyrainin,SoftwareType,DateUTC
2013-08-18 08:00:00,51.3,50.5,30.26,NE,39,0.0,1.0,97,0.00,,,0.00,Wunderground v.1.15,2013-08-18 12:00:00,
2013-08-18 08:05:00,51.4,50.3,30.26,NE,40,0.0,1.0,96,0.00,,,0.00,Wunderground v.1.15,2013-08-18 12:05:00,
2013-08-18 08:10:00,51.8,50.7,30.26,NE,39,0.0,1.0,96,0.00,,,0.00,Wunderground v.1.15,2013-08-18 12:10:00,
2013-08-18 08:15:00,52.2,50.8,30.26,NE,55,0.0,1.0,95,0.00,,,0.00,Wunderground v.1.15,2013-08-18 12:15:00,
2013-08-18 08:20:00,52.7,51.3,30.25,ENE,63,0.0,1.0,95,0.00,,,0.00,Wunderground v.1.15,2013-08-18 12:20:00,
2013-08-18 08:25:00,53.3,51.6,30.25,ENE,73,0.0,1.0,94,0.00,,,0.00,Wunderground v.1.15,2013-08-18 12:25:00,
2013-08-18 08:35:00,54.2,51.9,30.26,ESE,106,0.0,1.0,92,0.00,,,0.00,Wunderground v.1.15,2013-08-18 12:35:00,
2013-08-18 08:40:00,54.5,51.9,30.26,ESE,110,0.0,1.0,91,0.00,,,0.00,Wunderground v.1.15,2013-08-18 12:40:00,
2013-08-18 08:45:00,55.0,52.7,30.25,ESE,111,0.0,1.0,92,0.00,,,0.00,Wunderground v.1.15,2013-08-18 12:45:00,
2013-08-18 08:50:00,55.6,52.7,30.25,ESE,111,0.0,1.0,90,0.00,,,0.00,Wunderground v.1.15,2013-08-18 12:50:00,
2013-08-18 08:55:00,56.3,52.8,30.25,NE,56,0.0,1.0,88,0.00,,,0.00,Wunderground v.1.15,2013-08-18 12:55:00,
2013-08-18 09:05:00,57.6,53.8,30.25,East,93,0.0,1.0,87,0.00,,,0.00,Wunderground v.1.15,2013-08-18 13:05:00,
2013-08-18 09:10:00,58.1,53.9,30.25,SE,133,0.0,1.0,86,0.00,,,0.00,Wunderground v.1.15,2013-08-18 13:10:00,
2013-08-18 09:15:00,58.7,54.2,30.25,ESE,117,0.0,1.0,85,0.00,,,0.00,Wunderground v.1.15,2013-08-18 13:15:00,
2013-08-18 09:20:00,59.2,54.4,30.25,ENE,58,0.0,1.0,84,0.00,,,0.00,Wunderground v.1.15,2013-08-18 13:20:00,
2013-08-18 09:25:00,59.9,54.7,30.25,SE,124,0.0,1.0,83,0.00,,,0.00,Wunderground v.1.15,2013-08-18 13:25:00,
2013-08-18 09:30:00,60.3,54.8,30.25,SE,124,0.0,1.0,82,0.00,,,0.00,Wunderground v.1.15,2013-08-18 13:30:00,
2013-08-18 09:40:00,61.3,54.7,30.25,SE,125,0.0,1.0,79,0.00,,,0.00,Wunderground v.1.15,2013-08-18 13:40:00,
2013-08-18 09:45:00,61.9,56.0,30.24,SE,128,0.0,1.0,81,0.00,,,0.00,Wunderground v.1.15,2013-08-18 13:45:00,
2013-08-18 09:50:00,62.4,55.1,30.24,SE,139,0.0,1.0,77,0.00,,,0.00,Wunderground v.1.15,2013-08-18 13:50:00,
2013-08-18 09:55:00,62.6,55.3,30.24,NE,41,0.0,1.0,77,0.00,,,0.00,Wunderground v.1.15,2013-08-18 13:55:00,
2013-08-18 10:00:00,63.0,56.7,30.24,SSE,158,0.0,1.0,80,0.00,,,0.00,Wunderground v.1.15,2013-08-18 14:00:00,
2013-08-18 10:05:00,63.5,56.2,30.24,SSE,156,0.0,1.0,77,0.00,,,0.00,Wunderground v.1.15,2013-08-18 14:05:00,
2013-08-18 10:10:00,64.3,57.6,30.23,SSE,155,0.0,1.0,79,0.00,,,0.00,Wunderground v.1.15,2013-08-18 14:10:00,
2013-08-18 10:15:00,64.8,57.1,30.23,SE,139,0.0,1.0,76,0.00,,,0.00,Wunderground v.1.15,2013-08-18 14:15:00,
2013-08-18 10:20:00,65.1,56.6,30.23,SE,145,0.0,1.0,74,0.00,,,0.00,Wunderground v.1.15,2013-08-18 14:20:00,
2013-08-18 10:25:00,65.5,56.6,30.23,SE,127,1.0,1.0,73,0.00,,,0.00,Wunderground v.1.15,2013-08-18 14:25:00,
2013-08-18 10:30:00,65.9,58.1,30.23,SSE,161,0.0,1.0,76,0.00,,,0.00,Wunderground v.1.15,2013-08-18 14:30:00,
2013-08-18 10:40:00,67.0,57.7,30.23,SSE,158,0.0,1.0,72,0.00,,,0.00,Wunderground v.1.15,2013-08-18 14:40:00,
2013-08-18 10:45:00,67.0,56.9,30.23,SSE,167,0.0,1.0,70,0.00,,,0.00,Wunderground v.1.15,2013-08-18 14:45:00,
2013-08-18 10:50:00,67.2,57.1,30.23,SSE,163,0.0,1.0,70,0.00,,,0.00,Wunderground v.1.15,2013-08-18 14:50:00,
2013-08-18 10:55:00,67.4,57.7,30.23,SE,132,0.0,1.0,71,0.00,,,0.00,Wunderground v.1.15,2013-08-18 14:55:00,
2013-08-18 11:00:00,67.6,57.5,30.22,South,174,0.0,1.0,70,0.00,,,0.00,Wunderground v.1.15,2013-08-18 15:00:00,
2013-08-18 11:05:00,67.8,56.9,30.23,ESE,120,0.0,1.0,68,0.00,,,0.00,Wunderground v.1.15,2013-08-18 15:05:00,
2013-08-18 11:15:00,68.7,58.1,30.22,ESE,120,0.0,1.0,69,0.00,,,0.00,Wunderground v.1.15,2013-08-18 15:15:00,
2013-08-18 11:20:00,68.7,57.3,30.22,ESE,120,0.0,1.0,67,0.00,,,0.00,Wunderground v.1.15,2013-08-18 15:20:00,
2013-08-18 11:25:00,69.3,57.9,30.22,NW,325,0.0,1.0,67,0.00,,,0.00,Wunderground v.1.15,2013-08-18 15:25:00,
2013-08-18 11:30:00,69.8,59.2,30.22,NW,325,0.0,1.0,69,0.00,,,0.00,Wunderground v.1.15,2013-08-18 15:30:00,
2013-08-18 11:35:00,70.5,59.8,30.22,ESE,117,0.0,1.0,69,0.00,,,0.00,Wunderground v.1.15,2013-08-18 15:35:00,
2013-08-18 11:45:00,71.4,59.4,30.21,SE,125,0.0,1.0,66,0.00,,,0.00,Wunderground v.1.15,2013-08-18 15:45:00,
2013-08-18 11:50:00,71.5,60.0,30.21,SE,125,0.0,1.0,67,0.00,,,0.00,Wunderground v.1.15,2013-08-18 15:50:00,
2013-08-18 11:55:00,71.8,59.4,30.21,WSW,248,0.0,1.0,65,0.00,,,0.00,Wunderground v.1.15,2013-08-18 15:55:00,
2013-08-18 12:00:00,72.1,59.7,30.21,SE,146,0.0,1.0,65,0.00,,,0.00,Wunderground v.1.15,2013-08-18 16:00:00,
2013-08-18 12:05:00,72.2,59.3,30.21,SSE,152,1.0,1.0,64,0.00,,,0.00,Wunderground v.1.15,2013-08-18 16:05:00,
2013-08-18 12:10:00,72.3,59.4,30.20,SSE,149,1.0,1.0,64,0.00,,,0.00,Wunderground v.1.15,2013-08-18 16:10:00,
2013-08-18 12:20:00,72.6,59.3,30.20,SE,145,1.0,1.0,63,0.00,,,0.00,Wunderground v.1.15,2013-08-18 16:20:00,
2013-08-18 12:25:00,72.9,59.6,30.19,South,174,1.0,1.0,63,0.00,,,0.00,Wunderground v.1.15,2013-08-18 16:25:00,
2013-08-18 12:30:00,73.4,59.6,30.19,SE,143,0.0,1.0,62,0.00,,,0.00,Wunderground v.1.15,2013-08-18 16:30:00,
2013-08-18 12:35:00,73.6,58.4,30.19,SE,146,0.0,1.0,59,0.00,,,0.00,Wunderground v.1.15,2013-08-18 16:35:00,
2013-08-18 12:40:00,73.7,59.4,30.19,South,177,1.0,1.0,61,0.00,,,0.00,Wunderground v.1.15,2013-08-18 16:40:00,
2013-08-18 12:50:00,74.0,60.2,30.18,SSE,157,1.0,1.0,62,0.00,,,0.00,Wunderground v.1.15,2013-08-18 16:50:00,
2013-08-18 12:55:00,74.3,61.8,30.18,SE,141,1.0,1.0,65,0.00,,,0.00,Wunderground v.1.15,2013-08-18 16:55:00,
2013-08-18 13:00:00,74.2,59.4,30.17,SSW,212,1.0,2.0,60,0.00,,,0.00,Wunderground v.1.15,2013-08-18 17:00:00,
2013-08-18 13:05:00,74.1,60.2,30.17,ESE,119,1.0,2.0,62,0.00,,,0.00,Wunderground v.1.15,2013-08-18 17:05:00,
2013-08-18 13:10:00,74.2,60.8,30.17,NNW,330,0.0,1.0,63,0.00,,,0.00,Wunderground v.1.15,2013-08-18 17:10:00,
2013-08-18 13:15:00,74.1,60.2,30.17,SSE,164,0.0,1.0,62,0.00,,,0.00,Wunderground v.1.15,2013-08-18 17:15:00,
2013-08-18 13:20:00,74.0,60.6,30.17,SE,141,1.0,1.0,63,0.00,,,0.00,Wunderground v.1.15,2013-08-18 17:20:00,
2013-08-18 13:25:00,74.0,59.7,30.17,SSW,195,1.0,1.0,61,0.00,,,0.00,Wunderground v.1.15,2013-08-18 17:25:00,
2013-08-18 13:30:00,73.8,57.6,30.17,SSW,205,1.0,1.0,57,0.00,,,0.00,Wunderground v.1.15,2013-08-18 17:30:00,
2013-08-18 13:35:00,73.8,59.5,30.17,SSE,155,1.0,1.0,61,0.00,,,0.00,Wunderground v.1.15,2013-08-18 17:35:00,
2013-08-18 13:40:00,73.9,61.4,30.16,South,176,0.0,1.0,65,0.00,,,0.00,Wunderground v.1.15,2013-08-18 17:40:00,
2013-08-18 13:45:00,73.8,60.0,30.16,SE,145,0.0,1.0,62,0.00,,,0.00,Wunderground v.1.15,2013-08-18 17:45:00,
2013-08-18 13:55:00,73.6,58.9,30.15,SSE,149,0.0,1.0,60,0.00,,,0.00,Wunderground v.1.15,2013-08-18 17:55:00,
2013-08-18 14:00:00,73.6,57.9,30.15,SSE,160,0.0,2.0,58,0.00,,,0.00,Wunderground v.1.15,2013-08-18 18:00:00,
2013-08-18 14:05:00,73.8,58.6,30.15,SSW,205,1.0,2.0,59,0.00,,,0.00,Wunderground v.1.15,2013-08-18 18:05:00,
2013-08-18 14:10:00,74.2,59.4,30.14,SSE,149,1.0,1.0,60,0.00,,,0.00,Wunderground v.1.15,2013-08-18 18:10:00,
2013-08-18 14:15:00,74.7,58.9,30.15,South,188,1.0,1.0,58,0.00,,,0.00,Wunderground v.1.15,2013-08-18 18:15:00,
2013-08-18 14:25:00,75.1,58.3,30.15,South,179,1.0,1.0,56,0.00,,,0.00,Wunderground v.1.15,2013-08-18 18:25:00,
2013-08-18 14:30:00,75.3,60.0,30.14,SSE,149,1.0,1.0,59,0.00,,,0.00,Wunderground v.1.15,2013-08-18 18:30:00,
2013-08-18 14:35:00,75.2,58.9,30.14,SSE,167,1.0,1.0,57,0.00,,,0.00,Wunderground v.1.15,2013-08-18 18:35:00,
2013-08-18 14:40:00,75.0,58.2,30.14,SSW,197,1.0,1.0,56,0.00,,,0.00,Wunderground v.1.15,2013-08-18 18:40:00,
2013-08-18 14:45:00,75.0,58.7,30.14,SSE,158,1.0,1.0,57,0.00,,,0.00,Wunderground v.1.15,2013-08-18 18:45:00,
2013-08-18 14:50:00,74.9,58.1,30.14,SSE,150,1.0,1.0,56,0.00,,,0.00,Wunderground v.1.15,2013-08-18 18:50:00,
2013-08-18 15:00:00,75.1,60.3,30.13,SSE,148,0.0,1.0,60,0.00,,,0.00,Wunderground v.1.15,2013-08-18 19:00:00,
2013-08-18 15:05:00,75.3,60.9,30.13,SSE,166,0.0,1.0,61,0.00,,,0.00,Wunderground v.1.15,2013-08-18 19:05:00,
2013-08-18 15:10:00,75.4,59.1,30.12,SSE,153,0.0,2.0,57,0.00,,,0.00,Wunderground v.1.15,2013-08-18 19:10:00,
2013-08-18 15:15:00,75.5,58.7,30.12,SSE,162,1.0,2.0,56,0.00,,,0.00,Wunderground v.1.15,2013-08-18 19:15:00,
2013-08-18 15:20:00,75.7,60.8,30.12,ESE,117,0.0,1.0,60,0.00,,,0.00,Wunderground v.1.15,2013-08-18 19:20:00,
2013-08-18 15:30:00,75.8,59.5,30.12,East,79,0.0,1.0,57,0.00,,,0.00,Wunderground v.1.15,2013-08-18 19:30:00,
2013-08-18 15:35:00,75.6,56.2,30.11,South,172,0.0,1.0,51,0.00,,,0.00,Wunderground v.1.15,2013-08-18 19:35:00,
2013-08-18 15:40:00,75.5,55.6,30.11,SE,132,0.0,1.0,50,0.00,,,0.00,Wunderground v.1.15,2013-08-18 19:40:00,
2013-08-18 15:45:00,75.8,58.0,30.11,SE,133,0.0,1.0,54,0.00,,,0.00,Wunderground v.1.15,2013-08-18 19:45:00,
2013-08-18 15:50:00,76.1,56.7,30.11,SE,135,0.0,1.0,51,0.00,,,0.00,Wunderground v.1.15,2013-08-18 19:50:00,
2013-08-18 15:55:00,75.7,55.7,30.10,SE,131,0.0,1.0,50,0.00,,,0.00,Wunderground v.1.15,2013-08-18 19:55:00,
2013-08-18 16:05:00,75.3,57.5,30.10,SSW,198,0.0,1.0,54,0.00,,,0.00,Wunderground v.1.15,2013-08-18 20:05:00,
2013-08-18 16:10:00,75.1,56.3,30.10,SE,145,0.0,1.0,52,0.00,,,0.00,Wunderground v.1.15,2013-08-18 20:10:00,
2013-08-18 16:15:00,75.0,57.7,30.10,SW,215,0.0,1.0,55,0.00,,,0.00,Wunderground v.1.15,2013-08-18 20:15:00,
2013-08-18 16:20:00,74.8,60.4,30.10,SSW,207,0.0,1.0,61,0.00,,,0.00,Wunderground v.1.15,2013-08-18 20:20:00,
2013-08-18 16:25:00,74.7,60.4,30.10,South,186,0.0,1.0,61,0.00,,,0.00,Wunderground v.1.15,2013-08-18 20:25:00,
2013-08-18 16:35:00,74.0,60.2,30.09,SSE,154,0.0,1.0,62,0.00,,,0.00,Wunderground v.1.15,2013-08-18 20:35:00,
2013-08-18 16:40:00,73.7,62.1,30.09,SSE,152,0.0,1.0,67,0.00,,,0.00,Wunderground v.1.15,2013-08-18 20:40:00,
2013-08-18 16:45:00,73.1,60.6,30.09,SE,139,0.0,1.0,65,0.00,,,0.00,Wunderground v.1.15,2013-08-18 20:45:00,
2013-08-18 16:50:00,72.9,57.3,30.09,ESE,114,0.0,1.0,58,0.00,,,0.00,Wunderground v.1.15,2013-08-18 20:50:00,
2013-08-18 16:55:00,73.1,57.9,30.09,SSW,208,0.0,1.0,59,0.00,,,0.00,Wunderground v.1.15,2013-08-18 20:55:00,
2013-08-18 17:00:00,73.1,60.6,30.09,NNW,346,0.0,1.0,65,0.00,,,0.00,Wunderground v.1.15,2013-08-18 21:00:00,
2013-08-18 17:05:00,72.8,57.2,30.09,SSW,205,0.0,1.0,58,0.00,,,0.00,Wunderground v.1.15,2013-08-18 21:05:00,
2013-08-18 17:10:00,72.7,57.5,30.09,SSW,206,0.0,1.0,59,0.00,,,0.00,Wunderground v.1.15,2013-08-18 21:10:00,
2013-08-18 17:15:00,72.5,56.4,30.08,South,180,0.0,1.0,57,0.00,,,0.00,Wunderground v.1.15,2013-08-18 21:15:00,
2013-08-18 17:20:00,72.2,55.6,30.08,WNW,288,0.0,2.0,56,0.00,,,0.00,Wunderground v.1.15,2013-08-18 21:20:00,
2013-08-18 17:25:00,71.6,60.1,30.08,WNW,288,0.0,2.0,67,0.00,,,0.00,Wunderground v.1.15,2013-08-18 21:25:00,
2013-08-18 17:30:00,70.9,57.2,30.08,SSE,148,0.0,1.0,62,0.00,,,0.00,Wunderground v.1.15,2013-08-18 21:30:00,
2013-08-18 17:40:00,70.0,60.2,30.08,North,360,0.0,1.0,71,0.00,,,0.00,Wunderground v.1.15,2013-08-18 21:40:00,
2013-08-18 17:45:00,69.4,60.4,30.07,North,360,0.0,1.0,73,0.00,,,0.00,Wunderground v.1.15,2013-08-18 21:45:00,
2013-08-18 17:50:00,69.1,60.1,30.07,North,360,0.0,1.0,73,0.00,,,0.00,Wunderground v.1.15,2013-08-18 21:50:00,
2013-08-18 17:55:00,68.7,60.8,30.07,North,359,0.0,1.0,76,0.00,,,0.00,Wunderground v.1.15,2013-08-18 21:55:00,